sensor_id;sensor_type;location;lat;lon;timestamp;temperature;humidity
70593;DHT22;58294;42.988;20.338;2022-09-09T00:04:08;460.80;2048.00
70593;DHT22;58294;42.988;20.338;2022-09-09T00:09:17;460.80;2048.00
70593;DHT22;58294;42.988;20.338;2022-09-09T00:11:45;460.80;2073.60
70593;DHT22;58294;42.988;20.338;2022-09-09T00:17:26;460.90;2048.00
70593;DHT22;58294;42.988;20.338;2022-09-09T00:19:59;460.90;2073.60
70593;DHT22;58294;42.988;20.338;2022-09-09T00:22:29;460.90;2073.60
70593;DHT22;58294;42.988;20.338;2022-09-09T00:25:09;460.90;2073.60
70593;DHT22;58294;42.988;20.338;2022-09-09T00:27:56;460.90;2099.20
70593;DHT22;58294;42.988;20.338;2022-09-09T00:30:28;460.80;2022.40
70593;DHT22;58294;42.988;20.338;2022-09-09T00:33:03;460.90;2124.80
70593;DHT22;58294;42.988;20.338;2022-09-09T00:35:40;460.90;2073.60
70593;DHT22;58294;42.988;20.338;2022-09-09T00:41:24;460.80;2022.40
70593;DHT22;58294;42.988;20.338;2022-09-09T00:44:02;436.10;2022.40
70593;DHT22;58294;42.988;20.338;2022-09-09T00:49:39;435.90;1996.80
70593;DHT22;58294;42.988;20.338;2022-09-09T00:52:13;435.90;1971.20
70593;DHT22;58294;42.988;20.338;2022-09-09T00:57:35;435.70;2022.40
70593;DHT22;58294;42.988;20.338;2022-09-09T01:00:24;435.70;1996.80
70593;DHT22;58294;42.988;20.338;2022-09-09T01:03:07;435.70;2073.60
70593;DHT22;58294;42.988;20.338;2022-09-09T01:06:00;435.70;2048.00
70593;DHT22;58294;42.988;20.338;2022-09-09T01:16:47;435.60;2048.00
70593;DHT22;58294;42.988;20.338;2022-09-09T01:19:20;435.40;2073.60
70593;DHT22;58294;42.988;20.338;2022-09-09T01:22:43;435.40;2048.00
70593;DHT22;58294;42.988;20.338;2022-09-09T01:25:29;435.40;2099.20
70593;DHT22;58294;42.988;20.338;2022-09-09T01:28:00;435.40;2048.00
70593;DHT22;58294;42.988;20.338;2022-09-09T01:30:28;435.40;2099.20
70593;DHT22;58294;42.988;20.338;2022-09-09T01:32:56;435.40;2124.80
70593;DHT22;58294;42.988;20.338;2022-09-09T01:35:45;435.40;2150.40
70593;DHT22;58294;42.988;20.338;2022-09-09T01:38:16;435.40;2124.80
70593;DHT22;58294;42.988;20.338;2022-09-09T01:40:42;435.60;2227.20
70593;DHT22;58294;42.988;20.338;2022-09-09T01:43:08;435.60;2227.20
70593;DHT22;58294;42.988;20.338;2022-09-09T01:45:34;435.60;2227.20
70593;DHT22;58294;42.988;20.338;2022-09-09T01:48:00;435.70;2201.60
70593;DHT22;58294;42.988;20.338;2022-09-09T01:50:29;435.70;2176.00
70593;DHT22;58294;42.988;20.338;2022-09-09T01:52:57;435.70;2176.00
70593;DHT22;58294;42.988;20.338;2022-09-09T01:55:40;435.70;2201.60
70593;DHT22;58294;42.988;20.338;2022-09-09T02:03:36;435.90;2252.80
70593;DHT22;58294;42.988;20.338;2022-09-09T02:06:30;435.90;2278.40
70593;DHT22;58294;42.988;20.338;2022-09-09T02:09:02;435.80;2176.00
70593;DHT22;58294;42.988;20.338;2022-09-09T02:11:30;435.90;2227.20
70593;DHT22;58294;42.988;20.338;2022-09-09T02:14:18;435.90;2227.20
70593;DHT22;58294;42.988;20.338;2022-09-09T02:16:59;435.90;2150.40
70593;DHT22;58294;42.988;20.338;2022-09-09T02:19:32;435.90;2201.60
70593;DHT22;58294;42.988;20.338;2022-09-09T02:22:01;435.80;2201.60
70593;DHT22;58294;42.988;20.338;2022-09-09T02:24:32;435.70;2176.00
70593;DHT22;58294;42.988;20.338;2022-09-09T02:27:01;435.70;2227.20
70593;DHT22;58294;42.988;20.338;2022-09-09T02:29:33;435.70;2201.60
70593;DHT22;58294;42.988;20.338;2022-09-09T02:32:02;435.70;2176.00
70593;DHT22;58294;42.988;20.338;2022-09-09T02:34:30;435.70;2176.00
70593;DHT22;58294;42.988;20.338;2022-09-09T02:36:59;435.70;2150.40
70593;DHT22;58294;42.988;20.338;2022-09-09T02:39:26;435.60;2150.40
70593;DHT22;58294;42.988;20.338;2022-09-09T02:41:52;435.60;2227.20
70593;DHT22;58294;42.988;20.338;2022-09-09T02:44:18;435.60;2201.60
70593;DHT22;58294;42.988;20.338;2022-09-09T02:50:03;435.50;2176.00
70593;DHT22;58294;42.988;20.338;2022-09-09T02:56:16;435.50;2252.80
70593;DHT22;58294;42.988;20.338;2022-09-09T02:58:35;435.50;2227.20
70593;DHT22;58294;42.988;20.338;2022-09-09T03:01:01;435.50;2252.80
70593;DHT22;58294;42.988;20.338;2022-09-09T03:03:28;435.60;2227.20
70593;DHT22;58294;42.988;20.338;2022-09-09T03:05:55;435.50;2252.80
70593;DHT22;58294;42.988;20.338;2022-09-09T03:08:22;435.40;2304.00
70593;DHT22;58294;42.988;20.338;2022-09-09T03:10:48;435.40;2278.40
70593;DHT22;58294;42.988;20.338;2022-09-09T03:13:15;435.40;2227.20
70593;DHT22;58294;42.988;20.338;2022-09-09T03:15:41;435.40;2278.40
70593;DHT22;58294;42.988;20.338;2022-09-09T03:18:07;435.40;2252.80
70593;DHT22;58294;42.988;20.338;2022-09-09T03:20:33;435.40;2278.40
70593;DHT22;58294;42.988;20.338;2022-09-09T03:23:00;435.40;2304.00
70593;DHT22;58294;42.988;20.338;2022-09-09T03:25:26;435.40;2278.40
70593;DHT22;58294;42.988;20.338;2022-09-09T03:27:53;435.40;2252.80
70593;DHT22;58294;42.988;20.338;2022-09-09T03:30:25;435.30;2278.40
70593;DHT22;58294;42.988;20.338;2022-09-09T03:32:51;435.30;2329.60
70593;DHT22;58294;42.988;20.338;2022-09-09T03:35:18;435.40;2304.00
70593;DHT22;58294;42.988;20.338;2022-09-09T03:37:44;435.40;2329.60
70593;DHT22;58294;42.988;20.338;2022-09-09T03:40:10;435.40;2304.00
70593;DHT22;58294;42.988;20.338;2022-09-09T03:42:37;435.40;2355.20
70593;DHT22;58294;42.988;20.338;2022-09-09T03:45:04;435.50;2355.20
70593;DHT22;58294;42.988;20.338;2022-09-09T03:47:30;435.60;2329.60
70593;DHT22;58294;42.988;20.338;2022-09-09T03:49:56;435.60;2304.00
70593;DHT22;58294;42.988;20.338;2022-09-09T03:52:22;435.60;2304.00
70593;DHT22;58294;42.988;20.338;2022-09-09T03:54:50;435.50;2278.40
70593;DHT22;58294;42.988;20.338;2022-09-09T03:57:17;435.40;2329.60
70593;DHT22;58294;42.988;20.338;2022-09-09T03:59:43;435.50;2329.60
70593;DHT22;58294;42.988;20.338;2022-09-09T04:02:09;435.60;2329.60
70593;DHT22;58294;42.988;20.338;2022-09-09T04:04:35;435.60;2329.60
70593;DHT22;58294;42.988;20.338;2022-09-09T04:07:01;435.60;2329.60
70593;DHT22;58294;42.988;20.338;2022-09-09T04:09:27;435.70;2329.60
70593;DHT22;58294;42.988;20.338;2022-09-09T04:11:53;435.70;2355.20
70593;DHT22;58294;42.988;20.338;2022-09-09T04:14:20;435.70;2355.20
70593;DHT22;58294;42.988;20.338;2022-09-09T04:16:46;435.70;2355.20
70593;DHT22;58294;42.988;20.338;2022-09-09T04:19:13;435.80;2355.20
70593;DHT22;58294;42.988;20.338;2022-09-09T04:21:40;435.90;2355.20
70593;DHT22;58294;42.988;20.338;2022-09-09T04:24:08;435.90;2355.20
70593;DHT22;58294;42.988;20.338;2022-09-09T04:26:34;435.90;2355.20
70593;DHT22;58294;42.988;20.338;2022-09-09T04:29:02;435.90;2355.20
70593;DHT22;58294;42.988;20.338;2022-09-09T04:31:28;435.90;2355.20
70593;DHT22;58294;42.988;20.338;2022-09-09T04:33:54;435.80;2355.20
70593;DHT22;58294;42.988;20.338;2022-09-09T04:36:20;435.70;2355.20
70593;DHT22;58294;42.988;20.338;2022-09-09T04:38:46;435.80;2355.20
70593;DHT22;58294;42.988;20.338;2022-09-09T04:41:14;435.80;2355.20
70593;DHT22;58294;42.988;20.338;2022-09-09T04:43:42;435.90;2355.20
70593;DHT22;58294;42.988;20.338;2022-09-09T04:46:08;435.90;2355.20
70593;DHT22;58294;42.988;20.338;2022-09-09T04:48:34;435.90;2355.20
70593;DHT22;58294;42.988;20.338;2022-09-09T04:51:06;435.90;2355.20
70593;DHT22;58294;42.988;20.338;2022-09-09T04:53:33;435.90;2355.20
70593;DHT22;58294;42.988;20.338;2022-09-09T04:56:07;436.00;2355.20
70593;DHT22;58294;42.988;20.338;2022-09-09T04:58:33;436.00;2355.20
70593;DHT22;58294;42.988;20.338;2022-09-09T05:01:07;436.00;2355.20
70593;DHT22;58294;42.988;20.338;2022-09-09T05:03:33;436.00;2355.20
70593;DHT22;58294;42.988;20.338;2022-09-09T05:06:09;436.00;2355.20
70593;DHT22;58294;42.988;20.338;2022-09-09T05:08:40;436.00;2355.20
70593;DHT22;58294;42.988;20.338;2022-09-09T05:11:19;435.90;2355.20
70593;DHT22;58294;42.988;20.338;2022-09-09T05:13:45;435.90;2355.20
70593;DHT22;58294;42.988;20.338;2022-09-09T05:16:13;435.70;2355.20
70593;DHT22;58294;42.988;20.338;2022-09-09T05:18:39;435.70;2355.20
70593;DHT22;58294;42.988;20.338;2022-09-09T05:21:06;435.70;2355.20
70593;DHT22;58294;42.988;20.338;2022-09-09T05:23:33;435.70;2355.20
70593;DHT22;58294;42.988;20.338;2022-09-09T05:25:59;435.70;2355.20
70593;DHT22;58294;42.988;20.338;2022-09-09T05:28:26;435.70;2355.20
70593;DHT22;58294;42.988;20.338;2022-09-09T05:31:03;435.80;2355.20
70593;DHT22;58294;42.988;20.338;2022-09-09T05:33:31;435.80;2355.20
70593;DHT22;58294;42.988;20.338;2022-09-09T05:36:00;435.80;2355.20
70593;DHT22;58294;42.988;20.338;2022-09-09T05:38:27;435.90;2355.20
70593;DHT22;58294;42.988;20.338;2022-09-09T05:40:53;435.90;2355.20
70593;DHT22;58294;42.988;20.338;2022-09-09T05:43:20;436.00;2355.20
70593;DHT22;58294;42.988;20.338;2022-09-09T05:45:58;436.00;2355.20
70593;DHT22;58294;42.988;20.338;2022-09-09T05:48:28;436.00;2355.20
70593;DHT22;58294;42.988;20.338;2022-09-09T05:50:54;436.00;2355.20
70593;DHT22;58294;42.988;20.338;2022-09-09T05:53:20;435.90;2355.20
70593;DHT22;58294;42.988;20.338;2022-09-09T05:55:46;435.90;2355.20
70593;DHT22;58294;42.988;20.338;2022-09-09T05:58:13;435.90;2355.20
70593;DHT22;58294;42.988;20.338;2022-09-09T06:00:40;435.90;2355.20
70593;DHT22;58294;42.988;20.338;2022-09-09T06:03:06;435.90;2355.20
70593;DHT22;58294;42.988;20.338;2022-09-09T06:05:32;435.70;2355.20
70593;DHT22;58294;42.988;20.338;2022-09-09T06:07:59;435.70;2355.20
70593;DHT22;58294;42.988;20.338;2022-09-09T06:10:24;435.70;2355.20
70593;DHT22;58294;42.988;20.338;2022-09-09T06:12:52;435.70;2355.20
70593;DHT22;58294;42.988;20.338;2022-09-09T06:15:18;435.70;2355.20
70593;DHT22;58294;42.988;20.338;2022-09-09T06:17:44;435.60;2355.20
70593;DHT22;58294;42.988;20.338;2022-09-09T06:20:11;435.60;2355.20
70593;DHT22;58294;42.988;20.338;2022-09-09T06:22:40;435.60;2355.20
70593;DHT22;58294;42.988;20.338;2022-09-09T06:25:08;435.60;2355.20
70593;DHT22;58294;42.988;20.338;2022-09-09T06:27:34;435.70;2355.20
70593;DHT22;58294;42.988;20.338;2022-09-09T06:29:59;435.70;2355.20
70593;DHT22;58294;42.988;20.338;2022-09-09T06:32:25;435.60;2355.20
70593;DHT22;58294;42.988;20.338;2022-09-09T06:34:52;435.60;2355.20
70593;DHT22;58294;42.988;20.338;2022-09-09T06:37:18;435.60;2355.20
70593;DHT22;58294;42.988;20.338;2022-09-09T06:39:44;435.50;2355.20
70593;DHT22;58294;42.988;20.338;2022-09-09T06:42:10;435.40;2355.20
70593;DHT22;58294;42.988;20.338;2022-09-09T06:44:35;435.40;2355.20
70593;DHT22;58294;42.988;20.338;2022-09-09T06:47:02;435.40;2355.20
70593;DHT22;58294;42.988;20.338;2022-09-09T06:49:28;435.40;2355.20
70593;DHT22;58294;42.988;20.338;2022-09-09T06:51:53;435.40;2355.20
70593;DHT22;58294;42.988;20.338;2022-09-09T06:54:20;435.40;2355.20
70593;DHT22;58294;42.988;20.338;2022-09-09T06:56:47;435.40;2355.20
70593;DHT22;58294;42.988;20.338;2022-09-09T06:59:15;435.40;2355.20
70593;DHT22;58294;42.988;20.338;2022-09-09T07:01:42;435.30;2355.20
70593;DHT22;58294;42.988;20.338;2022-09-09T07:04:18;435.30;2355.20
70593;DHT22;58294;42.988;20.338;2022-09-09T07:06:45;435.30;2355.20
70593;DHT22;58294;42.988;20.338;2022-09-09T07:09:13;435.40;2355.20
70593;DHT22;58294;42.988;20.338;2022-09-09T07:11:48;435.40;2355.20
70593;DHT22;58294;42.988;20.338;2022-09-09T07:14:15;435.40;2355.20
70593;DHT22;58294;42.988;20.338;2022-09-09T07:16:42;435.40;2355.20
70593;DHT22;58294;42.988;20.338;2022-09-09T07:19:08;435.40;2355.20
70593;DHT22;58294;42.988;20.338;2022-09-09T07:21:35;435.40;2355.20
70593;DHT22;58294;42.988;20.338;2022-09-09T07:24:01;435.50;2355.20
70593;DHT22;58294;42.988;20.338;2022-09-09T07:26:29;435.60;2355.20
70593;DHT22;58294;42.988;20.338;2022-09-09T07:28:56;435.60;2355.20
70593;DHT22;58294;42.988;20.338;2022-09-09T07:31:31;435.70;2355.20
70593;DHT22;58294;42.988;20.338;2022-09-09T07:33:57;435.70;2355.20
70593;DHT22;58294;42.988;20.338;2022-09-09T07:36:28;435.70;2355.20
70593;DHT22;58294;42.988;20.338;2022-09-09T07:39:03;435.70;2355.20
70593;DHT22;58294;42.988;20.338;2022-09-09T07:41:30;435.70;2355.20
70593;DHT22;58294;42.988;20.338;2022-09-09T07:43:57;435.70;2355.20
70593;DHT22;58294;42.988;20.338;2022-09-09T07:46:25;435.70;2355.20
70593;DHT22;58294;42.988;20.338;2022-09-09T07:48:55;435.70;2355.20
70593;DHT22;58294;42.988;20.338;2022-09-09T07:51:30;435.80;2355.20
70593;DHT22;58294;42.988;20.338;2022-09-09T07:53:58;435.80;2355.20
70593;DHT22;58294;42.988;20.338;2022-09-09T07:56:26;435.70;2355.20
70593;DHT22;58294;42.988;20.338;2022-09-09T07:58:53;435.70;2355.20
70593;DHT22;58294;42.988;20.338;2022-09-09T08:01:31;435.80;2355.20
70593;DHT22;58294;42.988;20.338;2022-09-09T08:04:02;435.90;2355.20
70593;DHT22;58294;42.988;20.338;2022-09-09T08:06:33;435.90;2355.20
70593;DHT22;58294;42.988;20.338;2022-09-09T08:08:59;435.90;2355.20
70593;DHT22;58294;42.988;20.338;2022-09-09T08:11:27;435.90;2355.20
70593;DHT22;58294;42.988;20.338;2022-09-09T08:13:54;435.90;2355.20
70593;DHT22;58294;42.988;20.338;2022-09-09T08:16:23;435.90;2355.20
70593;DHT22;58294;42.988;20.338;2022-09-09T08:18:52;435.90;2355.20
70593;DHT22;58294;42.988;20.338;2022-09-09T08:21:22;435.90;2355.20
70593;DHT22;58294;42.988;20.338;2022-09-09T08:23:50;435.90;2355.20
70593;DHT22;58294;42.988;20.338;2022-09-09T08:26:19;435.90;2355.20
70593;DHT22;58294;42.988;20.338;2022-09-09T08:28:52;436.00;2355.20
70593;DHT22;58294;42.988;20.338;2022-09-09T08:31:26;436.00;2355.20
70593;DHT22;58294;42.988;20.338;2022-09-09T08:33:56;436.10;2355.20
70593;DHT22;58294;42.988;20.338;2022-09-09T08:36:27;436.10;2355.20
70593;DHT22;58294;42.988;20.338;2022-09-09T08:38:55;460.80;2380.80
70593;DHT22;58294;42.988;20.338;2022-09-09T08:44:49;460.90;2380.80
70593;DHT22;58294;42.988;20.338;2022-09-09T08:52:55;461.10;2380.80
70593;DHT22;58294;42.988;20.338;2022-09-09T08:58:29;461.30;2380.80
70593;DHT22;58294;42.988;20.338;2022-09-09T09:09:29;486.50;2380.80
70593;DHT22;58294;42.988;20.338;2022-09-09T09:12:00;486.60;2380.80
70593;DHT22;58294;42.988;20.338;2022-09-09T09:14:29;486.80;2380.80
70593;DHT22;58294;42.988;20.338;2022-09-09T09:17:04;486.90;2380.80
70593;DHT22;58294;42.988;20.338;2022-09-09T09:19:35;487.10;2380.80
70593;DHT22;58294;42.988;20.338;2022-09-09T09:27:32;487.20;2380.80
70593;DHT22;58294;42.988;20.338;2022-09-09T09:30:00;487.30;2380.80
70593;DHT22;58294;42.988;20.338;2022-09-09T09:32:30;487.30;2380.80
70593;DHT22;58294;42.988;20.338;2022-09-09T09:34:58;487.30;2380.80
70593;DHT22;58294;42.988;20.338;2022-09-09T09:37:32;487.30;2380.80
70593;DHT22;58294;42.988;20.338;2022-09-09T09:40:20;487.30;2380.80
70593;DHT22;58294;42.988;20.338;2022-09-09T09:42:55;487.30;2380.80
70593;DHT22;58294;42.988;20.338;2022-09-09T09:45:43;487.30;2380.80
70593;DHT22;58294;42.988;20.338;2022-09-09T09:48:14;487.30;2380.80
70593;DHT22;58294;42.988;20.338;2022-09-09T09:50:50;512.00;2380.80
70593;DHT22;58294;42.988;20.338;2022-09-09T09:53:21;512.00;2380.80
70593;DHT22;58294;42.988;20.338;2022-09-09T09:56:09;512.10;2380.80
70593;DHT22;58294;42.988;20.338;2022-09-09T10:01:25;512.10;2380.80
70593;DHT22;58294;42.988;20.338;2022-09-09T10:04:17;512.20;2380.80
70593;DHT22;58294;42.988;20.338;2022-09-09T10:06:45;512.40;2380.80
70593;DHT22;58294;42.988;20.338;2022-09-09T10:14:22;512.80;2380.80
70593;DHT22;58294;42.988;20.338;2022-09-09T10:17:13;512.80;2380.80
70593;DHT22;58294;42.988;20.338;2022-09-09T10:22:33;512.90;2380.80
70593;DHT22;58294;42.988;20.338;2022-09-09T10:36:34;563.40;2432.00
70593;DHT22;58294;42.988;20.338;2022-09-09T10:42:04;564.00;2432.00
70593;DHT22;58294;42.988;20.338;2022-09-09T10:44:36;588.80;2432.00
70593;DHT22;58294;42.988;20.338;2022-09-09T10:57:51;640.30;2432.00
70593;DHT22;58294;42.988;20.338;2022-09-09T11:00:22;640.50;2432.00
70593;DHT22;58294;42.988;20.338;2022-09-09T11:03:02;640.60;2432.00
70593;DHT22;58294;42.988;20.338;2022-09-09T11:11:02;640.60;2432.00
70593;DHT22;58294;42.988;20.338;2022-09-09T11:13:56;640.40;2432.00
70593;DHT22;58294;42.988;20.338;2022-09-09T11:16:30;640.20;2432.00
70593;DHT22;58294;42.988;20.338;2022-09-09T11:21:49;615.20;2432.00
70593;DHT22;58294;42.988;20.338;2022-09-09T11:24:27;615.10;2432.00
70593;DHT22;58294;42.988;20.338;2022-09-09T11:27:06;614.90;2432.00
70593;DHT22;58294;42.988;20.338;2022-09-09T11:30:04;614.80;2432.00
70593;DHT22;58294;42.988;20.338;2022-09-09T11:35:44;614.50;2432.00
70593;DHT22;58294;42.988;20.338;2022-09-09T11:40:53;614.40;2432.00
70593;DHT22;58294;42.988;20.338;2022-09-09T11:43:25;589.60;2432.00
70593;DHT22;58294;42.988;20.338;2022-09-09T11:45:55;589.50;2432.00
70593;DHT22;58294;42.988;20.338;2022-09-09T11:48:34;589.40;2432.00
70593;DHT22;58294;42.988;20.338;2022-09-09T11:51:07;589.40;2432.00
70593;DHT22;58294;42.988;20.338;2022-09-09T11:53:35;589.30;2432.00
70593;DHT22;58294;42.988;20.338;2022-09-09T11:56:10;589.30;2432.00
70593;DHT22;58294;42.988;20.338;2022-09-09T11:59:04;589.30;2432.00
70593;DHT22;58294;42.988;20.338;2022-09-09T12:01:43;589.30;2432.00
70593;DHT22;58294;42.988;20.338;2022-09-09T12:06:46;589.20;2432.00
70593;DHT22;58294;42.988;20.338;2022-09-09T12:14:43;589.10;2432.00
70593;DHT22;58294;42.988;20.338;2022-09-09T12:17:19;589.10;2432.00
70593;DHT22;58294;42.988;20.338;2022-09-09T12:19:46;589.20;2432.00
70593;DHT22;58294;42.988;20.338;2022-09-09T12:22:31;589.10;2432.00
70593;DHT22;58294;42.988;20.338;2022-09-09T12:25:23;589.10;2432.00
70593;DHT22;58294;42.988;20.338;2022-09-09T12:28:05;589.10;2432.00
70593;DHT22;58294;42.988;20.338;2022-09-09T12:33:16;589.00;2432.00
70593;DHT22;58294;42.988;20.338;2022-09-09T12:35:43;589.00;2432.00
70593;DHT22;58294;42.988;20.338;2022-09-09T12:38:18;589.00;2432.00
70593;DHT22;58294;42.988;20.338;2022-09-09T12:40:56;589.10;2432.00
70593;DHT22;58294;42.988;20.338;2022-09-09T12:43:23;589.10;2432.00
70593;DHT22;58294;42.988;20.338;2022-09-09T12:45:52;589.10;2432.00
70593;DHT22;58294;42.988;20.338;2022-09-09T12:48:35;589.00;2432.00
70593;DHT22;58294;42.988;20.338;2022-09-09T12:51:02;589.00;2432.00
70593;DHT22;58294;42.988;20.338;2022-09-09T12:53:36;589.00;2432.00
70593;DHT22;58294;42.988;20.338;2022-09-09T12:56:19;589.00;2432.00
70593;DHT22;58294;42.988;20.338;2022-09-09T12:58:49;589.00;2432.00
70593;DHT22;58294;42.988;20.338;2022-09-09T13:01:27;589.00;2432.00
70593;DHT22;58294;42.988;20.338;2022-09-09T13:03:54;589.00;2432.00
70593;DHT22;58294;42.988;20.338;2022-09-09T13:06:27;588.90;2432.00
70593;DHT22;58294;42.988;20.338;2022-09-09T13:08:55;588.90;2432.00
70593;DHT22;58294;42.988;20.338;2022-09-09T13:11:26;589.00;2432.00
70593;DHT22;58294;42.988;20.338;2022-09-09T13:13:56;589.00;2432.00
70593;DHT22;58294;42.988;20.338;2022-09-09T13:16:23;589.00;2432.00
70593;DHT22;58294;42.988;20.338;2022-09-09T13:18:51;588.90;2432.00
70593;DHT22;58294;42.988;20.338;2022-09-09T13:21:17;588.90;2432.00
70593;DHT22;58294;42.988;20.338;2022-09-09T13:23:49;588.90;2432.00
70593;DHT22;58294;42.988;20.338;2022-09-09T13:26:24;588.80;2432.00
70593;DHT22;58294;42.988;20.338;2022-09-09T13:28:52;564.10;2432.00
70593;DHT22;58294;42.988;20.338;2022-09-09T13:31:33;564.00;2432.00
70593;DHT22;58294;42.988;20.338;2022-09-09T13:34:22;563.90;2432.00
70593;DHT22;58294;42.988;20.338;2022-09-09T13:36:54;563.80;2432.00
70593;DHT22;58294;42.988;20.338;2022-09-09T13:39:22;563.70;2432.00
70593;DHT22;58294;42.988;20.338;2022-09-09T13:41:49;563.70;2432.00
70593;DHT22;58294;42.988;20.338;2022-09-09T13:44:21;563.70;2432.00
70593;DHT22;58294;42.988;20.338;2022-09-09T13:49:29;563.70;2432.00
70593;DHT22;58294;42.988;20.338;2022-09-09T13:52:10;563.70;2432.00
70593;DHT22;58294;42.988;20.338;2022-09-09T13:54:40;563.60;2432.00
70593;DHT22;58294;42.988;20.338;2022-09-09T13:57:18;563.50;2432.00
70593;DHT22;58294;42.988;20.338;2022-09-09T13:59:45;563.20;2432.00
70593;DHT22;58294;42.988;20.338;2022-09-09T14:02:11;538.50;2406.40
70593;DHT22;58294;42.988;20.338;2022-09-09T14:04:38;538.40;2406.40
70593;DHT22;58294;42.988;20.338;2022-09-09T14:07:11;538.30;2406.40
70593;DHT22;58294;42.988;20.338;2022-09-09T14:09:38;538.20;2406.40
70593;DHT22;58294;42.988;20.338;2022-09-09T14:12:04;538.10;2406.40
70593;DHT22;58294;42.988;20.338;2022-09-09T14:14:30;538.10;2406.40
70593;DHT22;58294;42.988;20.338;2022-09-09T14:16:56;538.10;2406.40
70593;DHT22;58294;42.988;20.338;2022-09-09T14:19:22;538.10;2406.40
70593;DHT22;58294;42.988;20.338;2022-09-09T14:21:48;538.10;2406.40
70593;DHT22;58294;42.988;20.338;2022-09-09T14:24:14;538.10;2406.40
70593;DHT22;58294;42.988;20.338;2022-09-09T14:26:39;538.10;2406.40
70593;DHT22;58294;42.988;20.338;2022-09-09T14:29:06;538.10;2406.40
70593;DHT22;58294;42.988;20.338;2022-09-09T14:31:32;538.10;2406.40
70593;DHT22;58294;42.988;20.338;2022-09-09T14:33:58;538.20;2406.40
70593;DHT22;58294;42.988;20.338;2022-09-09T14:36:24;538.20;2406.40
70593;DHT22;58294;42.988;20.338;2022-09-09T14:38:51;538.20;2406.40
70593;DHT22;58294;42.988;20.338;2022-09-09T14:41:19;538.30;2406.40
70593;DHT22;58294;42.988;20.338;2022-09-09T14:43:46;538.40;2406.40
70593;DHT22;58294;42.988;20.338;2022-09-09T14:46:14;538.50;2406.40
70593;DHT22;58294;42.988;20.338;2022-09-09T14:48:41;538.50;2406.40
70593;DHT22;58294;42.988;20.338;2022-09-09T14:51:10;563.20;2432.00
70593;DHT22;58294;42.988;20.338;2022-09-09T14:53:39;563.20;2432.00
70593;DHT22;58294;42.988;20.338;2022-09-09T14:56:10;563.20;2432.00
70593;DHT22;58294;42.988;20.338;2022-09-09T14:58:37;563.20;2432.00
70593;DHT22;58294;42.988;20.338;2022-09-09T15:01:10;563.20;2432.00
70593;DHT22;58294;42.988;20.338;2022-09-09T15:03:40;563.20;2432.00
70593;DHT22;58294;42.988;20.338;2022-09-09T15:06:07;563.20;2432.00
70593;DHT22;58294;42.988;20.338;2022-09-09T15:08:35;563.20;2432.00
70593;DHT22;58294;42.988;20.338;2022-09-09T15:11:04;563.30;2432.00
70593;DHT22;58294;42.988;20.338;2022-09-09T15:13:30;563.20;2432.00
70593;DHT22;58294;42.988;20.338;2022-09-09T15:16:07;563.20;2432.00
70593;DHT22;58294;42.988;20.338;2022-09-09T15:18:33;563.20;2432.00
70593;DHT22;58294;42.988;20.338;2022-09-09T15:20:59;563.30;2432.00
70593;DHT22;58294;42.988;20.338;2022-09-09T15:23:27;563.40;2432.00
70593;DHT22;58294;42.988;20.338;2022-09-09T15:25:54;563.40;2432.00
70593;DHT22;58294;42.988;20.338;2022-09-09T15:28:21;563.40;2432.00
70593;DHT22;58294;42.988;20.338;2022-09-09T15:30:51;563.40;2432.00
70593;DHT22;58294;42.988;20.338;2022-09-09T15:33:18;563.40;2432.00
70593;DHT22;58294;42.988;20.338;2022-09-09T15:35:44;563.50;2432.00
70593;DHT22;58294;42.988;20.338;2022-09-09T15:38:11;563.50;2432.00
70593;DHT22;58294;42.988;20.338;2022-09-09T15:40:39;563.40;2432.00
70593;DHT22;58294;42.988;20.338;2022-09-09T15:43:06;563.40;2432.00
70593;DHT22;58294;42.988;20.338;2022-09-09T15:45:33;563.50;2432.00
70593;DHT22;58294;42.988;20.338;2022-09-09T15:48:03;563.50;2432.00
70593;DHT22;58294;42.988;20.338;2022-09-09T15:50:29;563.50;2432.00
70593;DHT22;58294;42.988;20.338;2022-09-09T15:52:57;563.50;2432.00
70593;DHT22;58294;42.988;20.338;2022-09-09T15:55:22;563.50;2432.00
70593;DHT22;58294;42.988;20.338;2022-09-09T15:57:51;563.50;2432.00
70593;DHT22;58294;42.988;20.338;2022-09-09T16:00:21;563.60;2432.00
70593;DHT22;58294;42.988;20.338;2022-09-09T16:02:48;563.50;2432.00
70593;DHT22;58294;42.988;20.338;2022-09-09T16:05:14;563.50;2432.00
70593;DHT22;58294;42.988;20.338;2022-09-09T16:07:40;563.50;2432.00
70593;DHT22;58294;42.988;20.338;2022-09-09T16:10:08;563.50;2432.00
70593;DHT22;58294;42.988;20.338;2022-09-09T16:12:34;563.50;2432.00
70593;DHT22;58294;42.988;20.338;2022-09-09T16:15:00;563.50;2432.00
70593;DHT22;58294;42.988;20.338;2022-09-09T16:17:25;563.50;2432.00
70593;DHT22;58294;42.988;20.338;2022-09-09T16:19:53;563.40;2432.00
70593;DHT22;58294;42.988;20.338;2022-09-09T16:22:20;563.40;2432.00
70593;DHT22;58294;42.988;20.338;2022-09-09T16:24:45;563.40;2432.00
70593;DHT22;58294;42.988;20.338;2022-09-09T16:27:11;563.40;2432.00
70593;DHT22;58294;42.988;20.338;2022-09-09T16:29:37;563.40;2432.00
70593;DHT22;58294;42.988;20.338;2022-09-09T16:32:03;563.30;2432.00
70593;DHT22;58294;42.988;20.338;2022-09-09T16:34:29;563.20;2432.00
70593;DHT22;58294;42.988;20.338;2022-09-09T16:36:55;563.20;2432.00
70593;DHT22;58294;42.988;20.338;2022-09-09T16:39:21;563.20;2432.00
70593;DHT22;58294;42.988;20.338;2022-09-09T16:41:48;538.50;2406.40
70593;DHT22;58294;42.988;20.338;2022-09-09T16:44:16;538.50;2406.40
70593;DHT22;58294;42.988;20.338;2022-09-09T16:46:44;538.40;2406.40
70593;DHT22;58294;42.988;20.338;2022-09-09T16:49:12;538.30;2406.40
70593;DHT22;58294;42.988;20.338;2022-09-09T16:51:44;538.30;2406.40
70593;DHT22;58294;42.988;20.338;2022-09-09T16:54:11;538.20;2406.40
70593;DHT22;58294;42.988;20.338;2022-09-09T16:56:41;538.10;2406.40
70593;DHT22;58294;42.988;20.338;2022-09-09T16:59:13;538.10;2406.40
70593;DHT22;58294;42.988;20.338;2022-09-09T17:01:42;537.90;2406.40